SBGO

Santa Genoveva Airport

Airport
ICAO code
SBGO
IATA Code
GYN
Summary
ICAO Region
CARSAM
ICAO Territory
Location

Santa Genoveva, Goias

Serving
Goiânia
Elevation
2450 ft
Coordinates
16° 37' 47" S , 49° 13' 36" W
KCC
Metar
SBGO 171400Z 33004KT 230V020 CAVOK 26/11 Q1020

Santa Genoveva/Goiânia Airport is the airport serving Goiânia, Brazil.

Climatology

Tropical savanna climate (Köppen climate classification Aw)

Runways

Designator Length Width Surface Rops
14/32 2500 45 ASP Yes/Yes

Airport map

Aerial View

SKYbrary Partners:

Safety knowledge contributed by: